B51 EFJY-EFRO

Flight info

Callsign B51
Flight time 0h 48m
Altitude 30000
Route ADEDO DCT RENVI
Aircraft HAWK/M-SDGIRY/C

Departure

Time 2026-04-30 06:10
Airport Jyväskylä Airport (EFJY)

Arrival

Time 2026-04-30 06:58
Airport Rovaniemi Airport (EFRO)
Time Latitude Longitude Altitude Speed Heading
2026-04-30 05:38 62.40137 25.65754 462 ft 0 kts 233°
2026-04-30 06:03 62.40136 25.65752 463 ft 2 kts 233°
2026-04-30 06:04 62.40131 25.65726 464 ft 3 kts 280°
2026-04-30 06:04 62.40164 25.65727 462 ft 11 kts 20°
2026-04-30 06:04 62.40226 25.65813 461 ft 9 kts 41°
2026-04-30 06:05 62.40313 25.65993 464 ft 9 kts 46°
2026-04-30 06:05 62.40352 25.66073 469 ft 7 kts 44°
2026-04-30 06:05 62.40391 25.66155 475 ft 10 kts 44°
2026-04-30 06:05 62.40370 25.66303 475 ft 13 kts 143°
2026-04-30 06:06 62.40322 25.66414 475 ft 12 kts 134°
2026-04-30 06:06 62.40254 25.66570 475 ft 16 kts 135°
2026-04-30 06:06 62.40167 25.66760 477 ft 18 kts 132°
2026-04-30 06:06 62.40073 25.66971 476 ft 20 kts 134°
2026-04-30 06:07 62.39970 25.67206 472 ft 22 kts 134°
2026-04-30 06:07 62.39864 25.67438 470 ft 21 kts 134°
2026-04-30 06:07 62.39761 25.67668 467 ft 22 kts 133°
2026-04-30 06:07 62.39651 25.67917 461 ft 24 kts 134°
2026-04-30 06:08 62.39545 25.68188 455 ft 23 kts 118°
2026-04-30 06:08 62.39479 25.68467 460 ft 19 kts 118°
2026-04-30 06:08 62.39428 25.68677 466 ft 14 kts 120°
2026-04-30 06:08 62.39418 25.68862 466 ft 12 kts 52°
2026-04-30 06:09 62.39453 25.68938 465 ft 0 kts 343°
2026-04-30 06:09 62.39455 25.68934 465 ft 0 kts 315°
2026-04-30 06:09 62.39480 25.68880 465 ft 30 kts 314°
2026-04-30 06:09 62.39866 25.68015 474 ft 128 kts 311°
2026-04-30 06:10 62.40686 25.66234 843 ft 206 kts 316°
2026-04-30 06:10 62.41904 25.63927 2285 ft 244 kts 320°
2026-04-30 06:10 62.43285 25.61703 4680 ft 252 kts 326°
2026-04-30 06:10 62.44742 25.59598 6773 ft 257 kts 329°
2026-04-30 06:11 62.46284 25.57319 8184 ft 276 kts 317°
2026-04-30 06:11 62.47361 25.53997 10432 ft 268 kts 315°
2026-04-30 06:11 62.48754 25.51219 11883 ft 283 kts 324°
2026-04-30 06:11 62.50394 25.48410 12670 ft 319 kts 327°
2026-04-30 06:12 62.52130 25.45612 14793 ft 305 kts 328°
2026-04-30 06:12 62.53831 25.42899 16794 ft 304 kts 328°
2026-04-30 06:12 62.55580 25.40275 18477 ft 310 kts 331°
2026-04-30 06:12 62.57403 25.37672 19884 ft 315 kts 332°
2026-04-30 06:13 62.59265 25.35033 21321 ft 321 kts 329°
2026-04-30 06:13 62.60942 25.32174 23861 ft 291 kts 331°
2026-04-30 06:13 62.62557 25.29710 25725 ft 278 kts 334°
2026-04-30 06:13 62.63626 25.28184 26607 ft 281 kts 332°
2026-04-30 06:14 62.65228 25.25572 27528 ft 287 kts 333°
2026-04-30 06:14 62.67465 25.22246 28662 ft 298 kts 334°
2026-04-30 06:14 62.68624 25.20555 28997 ft 307 kts 333°
2026-04-30 06:14 62.71079 25.17003 29463 ft 331 kts 333°
2026-04-30 06:15 62.73058 25.14329 29718 ft 336 kts 335°
2026-04-30 06:15 62.75061 25.11759 29974 ft 331 kts 336°
2026-04-30 06:15 62.76441 25.10238 29995 ft 327 kts 341°
2026-04-30 06:16 62.80741 25.07944 30085 ft 316 kts 356°
2026-04-30 06:16 62.85084 25.07789 30050 ft 313 kts 359°
2026-04-30 06:17 62.89438 25.08458 29952 ft 312 kts
2026-04-30 06:17 62.91568 25.09078 30173 ft 305 kts
2026-04-30 06:17 62.93647 25.09841 30297 ft 301 kts
2026-04-30 06:17 62.95730 25.10663 29941 ft 307 kts
2026-04-30 06:18 62.97825 25.11371 30023 ft 303 kts
2026-04-30 06:18 62.99915 25.11784 30034 ft 300 kts
2026-04-30 06:18 63.01996 25.12125 30080 ft 301 kts
2026-04-30 06:19 63.06217 25.12677 30259 ft 302 kts 356°
2026-04-30 06:19 63.08292 25.12507 30626 ft 295 kts 358°
2026-04-30 06:19 63.10356 25.12455 30511 ft 302 kts 357°
2026-04-30 06:20 63.14679 25.12240 30417 ft 321 kts 358°
2026-04-30 06:20 63.19303 25.12530 29815 ft 345 kts
2026-04-30 06:20 63.21698 25.12878 30079 ft 347 kts
2026-04-30 06:21 63.24127 25.13310 30099 ft 352 kts
2026-04-30 06:21 63.29054 25.14222 30107 ft 358 kts
2026-04-30 06:22 63.34043 25.15219 30111 ft 361 kts
2026-04-30 06:22 63.39037 25.15477 30104 ft 362 kts 357°
2026-04-30 06:23 63.44096 25.15471 30116 ft 365 kts
2026-04-30 06:23 63.49128 25.16278 30112 ft 361 kts
2026-04-30 06:24 63.54124 25.17028 30107 ft 359 kts
2026-04-30 06:24 63.59100 25.17760 30107 ft 358 kts
2026-04-30 06:25 63.64058 25.18492 30108 ft 357 kts
2026-04-30 06:25 63.69016 25.19255 30109 ft 357 kts
2026-04-30 06:26 63.73963 25.20325 30141 ft 357 kts
2026-04-30 06:26 63.78908 25.21435 30113 ft 356 kts
2026-04-30 06:27 63.83840 25.22338 30097 ft 355 kts
2026-04-30 06:27 63.88756 25.23160 30143 ft 354 kts
2026-04-30 06:28 63.93669 25.24057 30135 ft 354 kts
2026-04-30 06:28 63.98549 25.25037 30133 ft 354 kts
2026-04-30 06:29 64.03461 25.26115 30133 ft 354 kts
2026-04-30 06:29 64.08370 25.27287 30152 ft 355 kts
2026-04-30 06:30 64.13278 25.28550 30136 ft 354 kts
2026-04-30 06:30 64.18173 25.29805 30134 ft 353 kts
2026-04-30 06:31 64.23071 25.30678 30109 ft 353 kts
2026-04-30 06:31 64.27984 25.31490 30123 ft 354 kts 360°
2026-04-30 06:32 64.32910 25.32276 30121 ft 355 kts 360°
2026-04-30 06:32 64.37817 25.32825 30125 ft 355 kts 358°
2026-04-30 06:33 64.42755 25.33174 30137 ft 355 kts 358°
2026-04-30 06:33 64.47685 25.33479 30121 ft 354 kts 358°
2026-04-30 06:34 64.52609 25.33778 30122 ft 353 kts 358°
2026-04-30 06:34 64.57525 25.34080 30123 ft 353 kts 358°
2026-04-30 06:35 64.62438 25.34387 30115 ft 353 kts 358°
2026-04-30 06:35 64.67344 25.34704 30126 ft 353 kts 358°
2026-04-30 06:36 64.72254 25.35028 30100 ft 353 kts 358°
2026-04-30 06:36 64.77143 25.35369 30104 ft 353 kts 358°
2026-04-30 06:37 64.82057 25.35730 30087 ft 353 kts 358°
2026-04-30 06:37 64.86967 25.36102 30081 ft 353 kts 358°
2026-04-30 06:38 64.91870 25.36479 30082 ft 352 kts 358°
2026-04-30 06:38 64.96773 25.36868 30083 ft 352 kts 358°
2026-04-30 06:39 65.01683 25.37302 30053 ft 353 kts 358°
2026-04-30 06:39 65.06606 25.37858 30083 ft 355 kts 358°
2026-04-30 06:40 65.11541 25.38462 30101 ft 356 kts 358°
2026-04-30 06:40 65.16451 25.39080 30099 ft 356 kts 358°
2026-04-30 06:41 65.21393 25.39714 30100 ft 356 kts 358°
2026-04-30 06:41 65.26336 25.40362 30108 ft 356 kts 358°
2026-04-30 06:42 65.31278 25.41019 30106 ft 356 kts 358°
2026-04-30 06:42 65.36218 25.41680 30109 ft 356 kts 358°
2026-04-30 06:42 65.38704 25.41970 29740 ft 361 kts 357°
2026-04-30 06:43 65.41208 25.42099 29271 ft 358 kts 357°
2026-04-30 06:43 65.43696 25.42303 28756 ft 358 kts 359°
2026-04-30 06:43 65.46185 25.42678 28279 ft 358 kts 360°
2026-04-30 06:43 65.48666 25.43242 27938 ft 357 kts
2026-04-30 06:44 65.51125 25.43818 27725 ft 353 kts
2026-04-30 06:44 65.53616 25.44379 26580 ft 365 kts 360°
2026-04-30 06:44 65.56210 25.44783 25474 ft 379 kts 359°
2026-04-30 06:44 65.58856 25.45144 24953 ft 378 kts 359°
2026-04-30 06:45 65.61497 25.45450 24243 ft 382 kts 359°
2026-04-30 06:45 65.64147 25.45674 23492 ft 385 kts 359°
2026-04-30 06:45 65.66866 25.45894 22301 ft 396 kts 359°
2026-04-30 06:45 65.69629 25.46040 21574 ft 396 kts 358°
2026-04-30 06:46 65.72354 25.46035 21179 ft 390 kts 356°
2026-04-30 06:46 65.75070 25.45880 20511 ft 392 kts 355°
2026-04-30 06:46 65.77808 25.45563 19754 ft 396 kts 354°
2026-04-30 06:46 65.80561 25.45147 19145 ft 396 kts 354°
2026-04-30 06:47 65.83294 25.44582 18806 ft 390 kts 352°
2026-04-30 06:47 65.85973 25.43821 18139 ft 390 kts 352°
2026-04-30 06:47 65.88725 25.43240 16752 ft 403 kts 354°
2026-04-30 06:47 65.91567 25.43282 15415 ft 414 kts
2026-04-30 06:48 65.94312 25.44429 14565 ft 395 kts
2026-04-30 06:48 65.96936 25.45838 13575 ft 378 kts 11°
2026-04-30 06:48 65.99417 25.47432 12104 ft 371 kts 21°
2026-04-30 06:48 66.01755 25.49572 11187 ft 346 kts
2026-04-30 06:49 66.03759 25.50438 10683 ft 267 kts
2026-04-30 06:49 66.05605 25.51236 9849 ft 273 kts
2026-04-30 06:49 66.07495 25.51422 9159 ft 266 kts
2026-04-30 06:49 66.09414 25.51826 8186 ft 277 kts 358°
2026-04-30 06:50 66.11301 25.52019 7833 ft 267 kts
2026-04-30 06:50 66.13132 25.52454 7411 ft 261 kts
2026-04-30 06:50 66.14937 25.52824 7017 ft 258 kts
2026-04-30 06:50 66.16697 25.52963 6641 ft 254 kts 358°
2026-04-30 06:51 66.18477 25.52890 6079 ft 256 kts 356°
2026-04-30 06:51 66.20244 25.52629 5684 ft 252 kts 355°
2026-04-30 06:51 66.21967 25.52626 5391 ft 245 kts 360°
2026-04-30 06:51 66.23665 25.52712 4934 ft 245 kts 360°
2026-04-30 06:52 66.25382 25.52745 4352 ft 249 kts 359°
2026-04-30 06:52 66.27107 25.52662 3912 ft 246 kts 357°
2026-04-30 06:52 66.28788 25.52394 3614 ft 239 kts 354°
2026-04-30 06:52 66.30426 25.52015 3245 ft 235 kts 355°
2026-04-30 06:53 66.32057 25.51830 2869 ft 232 kts 357°
2026-04-30 06:53 66.33654 25.51898 2583 ft 228 kts
2026-04-30 06:53 66.35224 25.52169 2366 ft 222 kts
2026-04-30 06:53 66.36749 25.52533 2249 ft 216 kts
2026-04-30 06:54 66.38240 25.52929 2119 ft 216 kts
2026-04-30 06:54 66.39681 25.53691 2214 ft 215 kts 17°
2026-04-30 06:54 66.41024 25.55385 2208 ft 214 kts 27°
2026-04-30 06:54 66.42243 25.57253 2391 ft 197 kts 28°
2026-04-30 06:55 66.43391 25.59069 2420 ft 193 kts 29°
2026-04-30 06:55 66.44508 25.60930 2494 ft 191 kts 30°
2026-04-30 06:55 66.45579 25.62821 2594 ft 187 kts 32°
2026-04-30 06:55 66.46633 25.64759 2368 ft 199 kts 31°
2026-04-30 06:56 66.47797 25.66714 2251 ft 198 kts 29°
2026-04-30 06:56 66.48890 25.68697 2271 ft 191 kts 37°
2026-04-30 06:56 66.49905 25.70700 2120 ft 184 kts 32°
2026-04-30 06:56 66.50904 25.72522 1922 ft 165 kts 31°
2026-04-30 06:57 66.51759 25.74126 1611 ft 148 kts 32°
2026-04-30 06:57 66.52547 25.75583 1366 ft 133 kts 32°
2026-04-30 06:57 66.53265 25.76906 1187 ft 124 kts 33°
2026-04-30 06:57 66.53950 25.78214 1030 ft 124 kts 34°
2026-04-30 06:58 66.54630 25.79504 865 ft 125 kts 33°
2026-04-30 06:58 66.55312 25.80810 703 ft 122 kts 34°
2026-04-30 06:58 66.55948 25.82012 617 ft 101 kts 37°
2026-04-30 06:58 66.56281 25.82597 627 ft 15 kts 338°
2026-04-30 06:59 66.56331 25.82436 627 ft 11 kts 307°
2026-04-30 06:59 66.56378 25.82285 629 ft 9 kts 327°
2026-04-30 06:59 66.56405 25.82263 631 ft 0 kts 352°
2026-04-30 06:59 66.56418 25.82259 632 ft 6 kts 356°
2026-04-30 07:00 66.56477 25.82328 632 ft 12 kts 37°
2026-04-30 07:00 66.56537 25.82442 634 ft 10 kts 37°
2026-04-30 07:00 66.56592 25.82544 634 ft 11 kts 38°
2026-04-30 07:00 66.56650 25.82656 635 ft 11 kts 37°
2026-04-30 07:01 66.56722 25.82785 637 ft 13 kts 38°
2026-04-30 07:01 66.56757 25.82828 639 ft 3 kts 330°
2026-04-30 07:01 66.56769 25.82790 641 ft 3 kts 307°
2026-04-30 07:01 66.56774 25.82773 642 ft 0 kts 307°